Time;durP1;ratioP1;P1;durP2;ratioP2;P2;SDS_P1;SDS_P2;PMS_P1;PMS_P2;Temp;Humidity;BMP_temperature;BMP_pressure;BME280_temperature;BME280_humidity;BME280_pressure;Samples;Min_cycle;Max_cycle;Signal;HPM_P1;HPM_P2
2023/06/08 00:03:07;;;;;;;0.10;0.10;;;;;;;;;;5045827;28;20404;-78
2023/06/08 00:05:43;;;;;;;0.25;0.22;;;;;;;;;;5061269;28;20115;-76
2023/06/08 00:08:10;;;;;;;0.35;0.35;;;;;;;;;;5062737;28;20049;-78
2023/06/08 00:10:36;;;;;;;0.22;0.20;;;;;;;;;;5052682;28;20057;-77
2023/06/08 00:13:03;;;;;;;0.15;0.15;;;;;;;;;;5063040;28;20679;-77
2023/06/08 00:15:30;;;;;;;0.20;0.20;;;;;;;;;;5064034;28;20131;-78
2023/06/08 00:17:56;;;;;;;0.20;0.20;;;;;;;;;;5061953;28;20056;-78
2023/06/08 00:20:23;;;;;;;0.10;0.10;;;;;;;;;;5063804;28;20080;-77
2023/06/08 00:22:51;;;;;;;0.17;0.17;;;;;;;;;;5060245;28;20379;-78
2023/06/08 00:25:17;;;;;;;0.65;0.45;;;;;;;;;;5064818;28;20057;-78
2023/06/08 00:27:44;;;;;;;0.20;0.20;;;;;;;;;;5064660;28;20362;-78
2023/06/08 00:30:13;;;;;;;0.10;0.10;;;;;;;;;;5064193;28;20064;-77
2023/06/08 00:32:40;;;;;;;0.25;0.25;;;;;;;;;;5062472;28;20806;-78
2023/06/08 00:35:07;;;;;;;0.10;0.10;;;;;;;;;;5064066;28;20041;-77
2023/06/08 00:37:35;;;;;;;0.20;0.20;;;;;;;;;;5064736;28;20800;-77
2023/06/08 00:40:04;;;;;;;0.10;0.10;;;;;;;;;;5064461;28;20090;-77
2023/06/08 00:42:31;;;;;;;0.10;0.10;;;;;;;;;;5063074;28;20134;-77
2023/06/08 00:44:57;;;;;;;0.20;0.20;;;;;;;;;;5063405;28;20573;-79
2023/06/08 00:47:25;;;;;;;0.20;0.20;;;;;;;;;;5063560;28;20045;-79
2023/06/08 00:49:51;;;;;;;0.30;0.30;;;;;;;;;;5064279;28;20061;-78
2023/06/08 00:52:20;;;;;;;0.93;0.93;;;;;;;;;;5061768;28;20063;-78
2023/06/08 00:54:48;;;;;;;0.10;0.10;;;;;;;;;;5064505;28;20107;-77
2023/06/08 00:57:16;;;;;;;0.30;0.30;;;;;;;;;;5064277;28;20176;-77
2023/06/08 00:59:43;;;;;;;0.17;0.17;;;;;;;;;;5064023;28;20049;-78
2023/06/08 01:02:10;;;;;;;0.10;0.10;;;;;;;;;;5060779;28;20057;-77
2023/06/08 01:04:39;;;;;;;0.50;0.20;;;;;;;;;;5062830;28;20469;-79
2023/06/08 01:07:14;;;;;;;0.10;0.10;;;;;;;;;;5063795;28;20045;-78
2023/06/08 01:09:41;;;;;;;0.20;0.20;;;;;;;;;;5062707;28;20140;-78
2023/06/08 01:12:16;;;;;;;0.20;0.20;;;;;;;;;;5062909;28;20510;-78
2023/06/08 01:14:51;;;;;;;1.25;0.63;;;;;;;;;;5064786;28;20033;-79
2023/06/08 01:17:19;;;;;;;0.20;0.20;;;;;;;;;;5063793;28;20059;-78
2023/06/08 01:19:52;;;;;;;0.28;0.25;;;;;;;;;;5061392;28;20063;-78
2023/06/08 01:22:22;;;;;;;0.10;0.10;;;;;;;;;;5063429;28;20521;-78
2023/06/08 01:24:52;;;;;;;0.20;0.20;;;;;;;;;;5061099;28;20955;-78
2023/06/08 01:27:18;;;;;;;0.10;0.10;;;;;;;;;;5058700;28;20049;-78
2023/06/08 01:29:47;;;;;;;0.10;0.10;;;;;;;;;;5063658;28;20053;-78
2023/06/08 01:32:13;;;;;;;0.63;0.63;;;;;;;;;;5064301;28;20107;-78
2023/06/08 01:34:40;;;;;;;0.10;0.10;;;;;;;;;;5063698;28;20057;-79
2023/06/08 01:37:15;;;;;;;0.20;0.20;;;;;;;;;;5059898;28;20486;-77
2023/06/08 01:39:48;;;;;;;0.10;0.10;;;;;;;;;;5064557;28;20112;-78
2023/06/08 01:42:17;;;;;;;0.20;0.20;;;;;;;;;;5064133;28;20056;-77
2023/06/08 01:44:46;;;;;;;0.30;0.20;;;;;;;;;;5064505;28;20549;-79
2023/06/08 01:47:14;;;;;;;0.57;0.53;;;;;;;;;;5061691;28;20052;-77
2023/06/08 01:49:41;;;;;;;0.30;0.25;;;;;;;;;;5064978;28;20233;-77
2023/06/08 01:52:08;;;;;;;0.47;0.22;;;;;;;;;;5061063;28;20561;-79
2023/06/08 01:54:36;;;;;;;0.10;0.10;;;;;;;;;;5063081;28;20057;-78
2023/06/08 01:57:03;;;;;;;0.10;0.10;;;;;;;;;;5061156;28;20104;-78
2023/06/08 01:59:29;;;;;;;0.20;0.20;;;;;;;;;;5063149;28;20053;-79
2023/06/08 02:01:56;;;;;;;0.10;0.10;;;;;;;;;;5062348;28;20277;-77
2023/06/08 02:04:22;;;;;;;0.20;0.20;;;;;;;;;;5063196;28;20053;-78
2023/06/08 02:06:48;;;;;;;0.10;0.10;;;;;;;;;;5062526;28;20507;-78
2023/06/08 02:09:15;;;;;;;0.10;0.10;;;;;;;;;;5061749;28;20503;-78
2023/06/08 02:11:41;;;;;;;0.10;0.10;;;;;;;;;;5064734;28;20121;-77
2023/06/08 02:14:09;;;;;;;0.10;0.10;;;;;;;;;;5066164;28;20049;-78
2023/06/08 02:16:38;;;;;;;0.10;0.10;;;;;;;;;;5064639;28;20061;-78
2023/06/08 02:19:05;;;;;;;0.10;0.10;;;;;;;;;;5064586;28;20075;-78
2023/06/08 02:21:32;;;;;;;0.20;0.20;;;;;;;;;;5065979;28;20052;-79
2023/06/08 02:23:59;;;;;;;0.73;0.73;;;;;;;;;;5066282;28;20104;-77
2023/06/08 02:26:25;;;;;;;0.10;0.10;;;;;;;;;;5065270;28;20649;-79
2023/06/08 02:28:52;;;;;;;0.10;0.10;;;;;;;;;;5066501;28;20103;-78
2023/06/08 02:31:18;;;;;;;0.30;0.20;;;;;;;;;;5066655;28;20057;-79
2023/06/08 02:33:45;;;;;;;0.10;0.10;;;;;;;;;;5066907;28;20531;-77
2023/06/08 02:36:11;;;;;;;0.10;0.10;;;;;;;;;;5065012;28;20271;-78
2023/06/08 02:38:38;;;;;;;0.10;0.10;;;;;;;;;;5065562;28;20064;-77
2023/06/08 02:41:06;;;;;;;0.45;0.45;;;;;;;;;;5066627;28;20053;-78
2023/06/08 02:43:33;;;;;;;0.10;0.10;;;;;;;;;;5067919;28;20151;-78
2023/06/08 02:45:59;;;;;;;0.20;0.15;;;;;;;;;;5066737;28;20110;-79
2023/06/08 02:48:26;;;;;;;0.10;0.10;;;;;;;;;;5065099;28;20057;-78
2023/06/08 02:50:52;;;;;;;0.47;0.28;;;;;;;;;;5066208;28;20053;-77
2023/06/08 02:53:18;;;;;;;0.13;0.13;;;;;;;;;;5066123;28;20061;-77
2023/06/08 02:55:45;;;;;;;0.10;0.10;;;;;;;;;;5066841;28;20120;-79
2023/06/08 02:58:11;;;;;;;0.30;0.30;;;;;;;;;;5064456;28;20808;-79
2023/06/08 03:00:38;;;;;;;0.10;0.10;;;;;;;;;;5064420;28;20537;-76
2023/06/08 03:03:04;;;;;;;0.10;0.10;;;;;;;;;;5065582;28;20343;-79
2023/06/08 03:05:34;;;;;;;0.20;0.20;;;;;;;;;;5066055;28;20091;-78
2023/06/08 03:08:01;;;;;;;0.10;0.10;;;;;;;;;;5066617;28;20491;-78
2023/06/08 03:10:27;;;;;;;0.10;0.10;;;;;;;;;;5066730;28;20442;-78
2023/06/08 03:12:53;;;;;;;0.38;0.32;;;;;;;;;;5062420;28;20061;-77
2023/06/08 03:15:22;;;;;;;0.28;0.28;;;;;;;;;;5065261;28;20057;-78
2023/06/08 03:17:51;;;;;;;0.10;0.10;;;;;;;;;;5065026;28;20056;-77
2023/06/08 03:20:17;;;;;;;0.70;0.40;;;;;;;;;;5066522;28;20104;-77
2023/06/08 03:22:46;;;;;;;0.10;0.10;;;;;;;;;;5060452;28;20111;-78
2023/06/08 03:25:15;;;;;;;0.10;0.10;;;;;;;;;;5063221;28;20845;-77
2023/06/08 03:27:42;;;;;;;0.10;0.10;;;;;;;;;;5066206;28;20510;-78
2023/06/08 03:30:09;;;;;;;0.10;0.10;;;;;;;;;;5066623;28;20053;-78
2023/06/08 03:32:39;;;;;;;0.10;0.10;;;;;;;;;;5065938;28;20155;-77
2023/06/08 03:35:06;;;;;;;0.10;0.10;;;;;;;;;;5355509;22;20106;-78
2023/06/08 03:37:33;;;;;;;0.10;0.10;;;;;;;;;;5086114;28;20056;-78
2023/06/08 03:40:00;;;;;;;0.10;0.10;;;;;;;;;;5086844;28;20063;-77
2023/06/08 03:42:26;;;;;;;0.38;0.32;;;;;;;;;;5086624;28;20532;-77
2023/06/08 03:44:53;;;;;;;0.28;0.20;;;;;;;;;;5073523;28;20053;-77
2023/06/08 03:47:19;;;;;;;0.10;0.10;;;;;;;;;;5076591;28;20059;-77
2023/06/08 03:49:46;;;;;;;0.10;0.10;;;;;;;;;;5085438;28;20110;-79
2023/06/08 03:52:12;;;;;;;0.10;0.10;;;;;;;;;;5086637;28;20052;-78
2023/06/08 03:54:39;;;;;;;0.10;0.10;;;;;;;;;;5086214;28;20083;-78
2023/06/08 03:57:06;;;;;;;0.47;0.28;;;;;;;;;;5084020;28;20056;-78
2023/06/08 03:59:32;;;;;;;0.10;0.10;;;;;;;;;;5086996;28;20056;-78
2023/06/08 04:01:59;;;;;;;0.17;0.17;;;;;;;;;;5085442;28;20138;-78
2023/06/08 04:04:29;;;;;;;0.35;0.32;;;;;;;;;;5085295;28;20065;-77
2023/06/08 04:07:00;;;;;;;0.55;0.55;;;;;;;;;;5081685;28;20067;-79
2023/06/08 04:09:30;;;;;;;0.13;0.13;;;;;;;;;;5086421;28;20064;-79
2023/06/08 04:11:56;;;;;;;0.30;0.30;;;;;;;;;;5085403;28;20577;-78
2023/06/08 04:14:23;;;;;;;0.10;0.10;;;;;;;;;;5084255;28;20597;-77
2023/06/08 04:16:50;;;;;;;0.43;0.43;;;;;;;;;;5083546;28;20048;-77
2023/06/08 04:19:16;;;;;;;0.10;0.10;;;;;;;;;;5086100;28;20481;-76
2023/06/08 04:21:43;;;;;;;0.20;0.20;;;;;;;;;;5084659;28;20494;-77
2023/06/08 04:24:16;;;;;;;0.20;0.20;;;;;;;;;;5086398;28;20534;-79
2023/06/08 04:26:43;;;;;;;0.20;0.20;;;;;;;;;;5082985;28;20528;-78
2023/06/08 04:29:10;;;;;;;0.80;0.73;;;;;;;;;;5083292;28;20052;-78
2023/06/08 04:31:36;;;;;;;0.10;0.10;;;;;;;;;;5085691;28;20056;-79
2023/06/08 04:34:03;;;;;;;0.15;0.15;;;;;;;;;;5084658;28;20560;-77
2023/06/08 04:36:29;;;;;;;0.80;0.60;;;;;;;;;;5084740;28;20507;-79
2023/06/08 04:38:56;;;;;;;0.10;0.10;;;;;;;;;;5082365;28;20048;-77
2023/06/08 04:41:25;;;;;;;0.20;0.20;;;;;;;;;;5083015;28;20052;-77
2023/06/08 04:43:52;;;;;;;0.10;0.10;;;;;;;;;;5085088;28;20591;-79
2023/06/08 04:46:19;;;;;;;0.15;0.15;;;;;;;;;;5085630;28;20554;-79
2023/06/08 04:48:46;;;;;;;0.20;0.20;;;;;;;;;;5082788;28;20518;-79
2023/06/08 04:51:12;;;;;;;0.20;0.20;;;;;;;;;;5082062;28;20049;-77
2023/06/08 04:53:42;;;;;;;0.52;0.52;;;;;;;;;;5086182;28;20049;-78
2023/06/08 04:56:18;;;;;;;1.20;1.07;;;;;;;;;;5086292;28;20053;-78
2023/06/08 04:58:45;;;;;;;0.10;0.10;;;;;;;;;;5084132;28;20079;-79
2023/06/08 05:01:11;;;;;;;0.10;0.10;;;;;;;;;;5082383;28;20684;-78
2023/06/08 05:03:38;;;;;;;0.10;0.10;;;;;;;;;;5065594;28;20503;-77
2023/06/08 05:06:04;;;;;;;0.10;0.10;;;;;;;;;;5072977;28;20049;-79
2023/06/08 05:08:31;;;;;;;0.20;0.20;;;;;;;;;;5085971;28;20411;-78
2023/06/08 05:10:58;;;;;;;0.10;0.10;;;;;;;;;;5083997;28;20119;-79
2023/06/08 05:13:25;;;;;;;1.30;0.60;;;;;;;;;;5495946;22;20600;-76
2023/06/08 05:15:51;;;;;;;0.20;0.20;;;;;;;;;;5053079;28;20127;-78
2023/06/08 05:18:18;;;;;;;0.88;0.88;;;;;;;;;;5041506;28;20309;-75
2023/06/08 05:20:45;;;;;;;0.10;0.10;;;;;;;;;;5040335;28;20056;-77
2023/06/08 05:23:12;;;;;;;0.20;0.20;;;;;;;;;;5038911;28;20060;-75
2023/06/08 05:25:38;;;;;;;0.22;0.22;;;;;;;;;;5041392;28;20505;-78
2023/06/08 05:28:05;;;;;;;0.10;0.10;;;;;;;;;;5041761;28;20060;-75
2023/06/08 05:30:31;;;;;;;1.52;1.42;;;;;;;;;;5041488;28;20049;-76
2023/06/08 05:33:00;;;;;;;0.25;0.25;;;;;;;;;;5041673;28;20054;-78
2023/06/08 05:35:27;;;;;;;0.43;0.32;;;;;;;;;;5054740;28;20057;-77
2023/06/08 05:37:53;;;;;;;0.57;0.30;;;;;;;;;;5042284;28;20699;-75
2023/06/08 05:40:20;;;;;;;0.10;0.10;;;;;;;;;;5043095;28;20061;-79
2023/06/08 05:42:48;;;;;;;0.55;0.45;;;;;;;;;;5041399;28;20064;-76
2023/06/08 05:45:15;;;;;;;0.32;0.32;;;;;;;;;;5039475;28;20057;-78
2023/06/08 05:47:41;;;;;;;0.70;0.45;;;;;;;;;;5044662;28;20511;-77
2023/06/08 05:50:08;;;;;;;0.60;0.50;;;;;;;;;;5041072;28;20104;-76
2023/06/08 05:52:35;;;;;;;0.10;0.10;;;;;;;;;;5046182;28;20057;-76
2023/06/08 05:55:01;;;;;;;0.10;0.10;;;;;;;;;;5044027;28;20515;-76
2023/06/08 05:57:28;;;;;;;0.17;0.17;;;;;;;;;;5041827;28;20064;-77
2023/06/08 05:59:54;;;;;;;0.10;0.10;;;;;;;;;;5045903;28;20061;-76
2023/06/08 06:02:21;;;;;;;0.17;0.17;;;;;;;;;;5045554;28;20049;-76
2023/06/08 06:04:47;;;;;;;0.45;0.40;;;;;;;;;;5042931;28;20050;-76
2023/06/08 06:07:14;;;;;;;0.10;0.10;;;;;;;;;;5044043;28;20064;-78
2023/06/08 06:09:41;;;;;;;0.10;0.10;;;;;;;;;;5044794;28;20058;-76
2023/06/08 06:12:07;;;;;;;0.47;0.47;;;;;;;;;;5044898;28;20137;-77
2023/06/08 06:14:38;;;;;;;0.47;0.30;;;;;;;;;;5041467;28;20057;-78
2023/06/08 06:17:05;;;;;;;0.17;0.17;;;;;;;;;;5042121;28;20518;-78
2023/06/08 06:19:37;;;;;;;0.52;0.30;;;;;;;;;;5044826;28;20060;-77
2023/06/08 06:22:05;;;;;;;0.10;0.10;;;;;;;;;;5046796;28;20077;-76
2023/06/08 06:24:31;;;;;;;0.17;0.17;;;;;;;;;;5043361;28;20076;-77
2023/06/08 06:26:58;;;;;;;0.10;0.10;;;;;;;;;;5039508;28;20088;-78
2023/06/08 06:29:24;;;;;;;0.75;0.52;;;;;;;;;;5043216;28;20570;-78
2023/06/08 06:31:51;;;;;;;0.73;0.73;;;;;;;;;;5043223;28;20053;-77
2023/06/08 06:34:19;;;;;;;0.10;0.10;;;;;;;;;;5045190;28;20124;-78
2023/06/08 06:36:45;;;;;;;0.10;0.10;;;;;;;;;;5043907;28;20795;-78
2023/06/08 06:39:12;;;;;;;0.70;0.68;;;;;;;;;;5044958;28;20064;-79
2023/06/08 06:41:40;;;;;;;0.10;0.10;;;;;;;;;;5043401;28;20408;-78
2023/06/08 06:44:07;;;;;;;0.20;0.20;;;;;;;;;;5038220;28;20062;-78
2023/06/08 06:46:34;;;;;;;0.30;0.30;;;;;;;;;;5036867;28;20068;-76
2023/06/08 06:49:01;;;;;;;0.20;0.20;;;;;;;;;;5045502;28;20166;-76
2023/06/08 06:51:27;;;;;;;0.52;0.52;;;;;;;;;;5050687;28;20053;-77
2023/06/08 06:53:54;;;;;;;0.93;0.40;;;;;;;;;;5046921;28;20057;-75
2023/06/08 06:56:21;;;;;;;0.20;0.20;;;;;;;;;;5046698;28;20060;-71
2023/06/08 06:58:47;;;;;;;0.20;0.20;;;;;;;;;;5044396;28;20049;-73
2023/06/08 07:01:15;;;;;;;0.50;0.35;;;;;;;;;;5045964;28;20683;-73
2023/06/08 07:03:46;;;;;;;0.10;0.10;;;;;;;;;;5043956;28;20054;-73
2023/06/08 07:06:13;;;;;;;0.47;0.40;;;;;;;;;;5044395;28;20099;-73
2023/06/08 07:08:41;;;;;;;0.30;0.30;;;;;;;;;;5046479;28;20179;-75
2023/06/08 07:11:08;;;;;;;0.35;0.35;;;;;;;;;;5042405;28;20056;-74
2023/06/08 07:13:35;;;;;;;1.55;0.52;;;;;;;;;;5044471;28;20132;-73
2023/06/08 07:16:03;;;;;;;1.33;0.88;;;;;;;;;;5044818;28;20522;-74
2023/06/08 07:18:30;;;;;;;0.30;0.20;;;;;;;;;;5039130;28;20053;-74
2023/06/08 07:20:57;;;;;;;6.72;1.23;;;;;;;;;;5044645;28;20101;-73
2023/06/08 07:23:24;;;;;;;0.40;0.40;;;;;;;;;;5045192;28;20091;-74
2023/06/08 07:26:11;;;;;;;0.98;0.50;;;;;;;;;;5039770;28;20050;-73
2023/06/08 07:28:55;;;;;;;0.73;0.47;;;;;;;;;;5046104;28;20057;-74
2023/06/08 07:31:23;;;;;;;0.40;0.40;;;;;;;;;;5033918;28;20613;-73
2023/06/08 07:33:50;;;;;;;0.40;0.40;;;;;;;;;;5045382;28;20107;-74
2023/06/08 07:36:17;;;;;;;0.30;0.30;;;;;;;;;;5044658;28;20081;-74
2023/06/08 07:38:43;;;;;;;1.88;0.93;;;;;;;;;;5044231;28;20135;-74
2023/06/08 07:41:10;;;;;;;0.20;0.20;;;;;;;;;;5045747;28;20133;-73
2023/06/08 07:43:36;;;;;;;0.20;0.20;;;;;;;;;;5045452;28;20058;-74
2023/06/08 07:46:03;;;;;;;0.20;0.20;;;;;;;;;;5045023;28;20529;-73
2023/06/08 07:48:29;;;;;;;0.75;0.40;;;;;;;;;;5046020;28;20064;-73
2023/06/08 07:50:56;;;;;;;0.20;0.20;;;;;;;;;;5043198;28;20124;-73
2023/06/08 07:53:24;;;;;;;0.20;0.20;;;;;;;;;;5043458;28;20068;-73
2023/06/08 07:55:51;;;;;;;0.52;0.50;;;;;;;;;;5045103;28;20060;-73
2023/06/08 07:58:18;;;;;;;0.20;0.20;;;;;;;;;;5043333;28;20054;-74
2023/06/08 08:00:45;;;;;;;0.40;0.40;;;;;;;;;;5043486;28;20092;-75
2023/06/08 08:03:11;;;;;;;1.45;1.02;;;;;;;;;;5035047;28;20415;-74
2023/06/08 08:05:38;;;;;;;0.20;0.20;;;;;;;;;;5044494;28;20539;-73
2023/06/08 08:08:04;;;;;;;1.35;0.55;;;;;;;;;;5040967;28;20127;-74
2023/06/08 08:10:31;;;;;;;1.05;0.82;;;;;;;;;;5039647;28;20054;-74
2023/06/08 08:12:58;;;;;;;0.30;0.30;;;;;;;;;;5042178;28;20057;-74
2023/06/08 08:15:26;;;;;;;0.80;0.43;;;;;;;;;;5044626;28;20061;-74
2023/06/08 08:17:53;;;;;;;0.28;0.28;;;;;;;;;;5045805;28;20558;-73
2023/06/08 08:20:19;;;;;;;0.38;0.30;;;;;;;;;;5044666;28;20053;-73
2023/06/08 08:22:46;;;;;;;0.20;0.20;;;;;;;;;;5047194;28;20057;-73
2023/06/08 08:25:12;;;;;;;0.40;0.40;;;;;;;;;;5048356;28;20033;-74
2023/06/08 08:27:39;;;;;;;0.68;0.60;;;;;;;;;;5046605;28;20084;-73
2023/06/08 08:30:06;;;;;;;0.45;0.30;;;;;;;;;;5038827;28;20062;-73
2023/06/08 08:32:33;;;;;;;0.20;0.20;;;;;;;;;;5033976;28;20061;-72
2023/06/08 08:35:00;;;;;;;0.85;0.47;;;;;;;;;;5032028;28;20786;-73
2023/06/08 08:37:26;;;;;;;0.63;0.50;;;;;;;;;;5042090;28;20053;-74
2023/06/08 08:39:53;;;;;;;0.65;0.40;;;;;;;;;;5034767;28;20057;-74
2023/06/08 08:42:22;;;;;;;0.30;0.30;;;;;;;;;;5043831;28;20581;-75
2023/06/08 08:44:53;;;;;;;0.83;0.43;;;;;;;;;;5041016;28;20172;-73
2023/06/08 08:47:21;;;;;;;1.50;1.13;;;;;;;;;;5034418;28;20736;-73
2023/06/08 08:49:53;;;;;;;0.43;0.43;;;;;;;;;;5028803;28;20053;-73
2023/06/08 08:52:20;;;;;;;0.20;0.20;;;;;;;;;;5040373;28;20161;-73
2023/06/08 08:54:56;;;;;;;0.57;0.40;;;;;;;;;;5041162;28;20801;-73
2023/06/08 08:57:25;;;;;;;1.20;0.55;;;;;;;;;;5042614;28;20053;-74
2023/06/08 08:59:52;;;;;;;3.03;0.52;;;;;;;;;;5043326;28;20064;-72
2023/06/08 09:02:18;;;;;;;0.40;0.40;;;;;;;;;;5037550;28;20103;-72
2023/06/08 09:04:45;;;;;;;0.52;0.50;;;;;;;;;;5042821;28;20049;-72
2023/06/08 09:07:16;;;;;;;0.77;0.40;;;;;;;;;;5040913;28;20057;-72
2023/06/08 09:10:02;;;;;;;0.38;0.38;;;;;;;;;;5039545;28;20064;-71
2023/06/08 09:12:39;;;;;;;0.50;0.50;;;;;;;;;;5043330;28;20104;-71
2023/06/08 09:15:07;;;;;;;1.10;0.43;;;;;;;;;;5044054;28;20064;-72
2023/06/08 09:17:40;;;;;;;1.13;0.63;;;;;;;;;;5039761;28;20640;-71
2023/06/08 09:20:11;;;;;;;0.30;0.30;;;;;;;;;;5038218;28;20053;-72
2023/06/08 09:22:38;;;;;;;0.93;0.40;;;;;;;;;;5037414;28;20294;-72
2023/06/08 09:25:05;;;;;;;0.28;0.20;;;;;;;;;;5041973;28;20483;-72
2023/06/08 09:27:32;;;;;;;0.40;0.30;;;;;;;;;;5042557;28;20132;-72
2023/06/08 09:30:02;;;;;;;0.80;0.57;;;;;;;;;;5042793;28;20058;-72
2023/06/08 09:32:33;;;;;;;0.32;0.32;;;;;;;;;;5039757;28;20535;-71
2023/06/08 09:35:01;;;;;;;0.20;0.20;;;;;;;;;;5038237;28;20054;-72
2023/06/08 09:37:31;;;;;;;0.50;0.47;;;;;;;;;;5039907;28;20756;-71
2023/06/08 09:39:59;;;;;;;0.40;0.40;;;;;;;;;;5039551;28;20772;-71
2023/06/08 09:42:41;;;;;;;0.20;0.20;;;;;;;;;;5040932;28;20063;-74
2023/06/08 09:45:09;;;;;;;0.20;0.20;;;;;;;;;;5041189;28;20127;-72
2023/06/08 09:47:35;;;;;;;0.20;0.20;;;;;;;;;;5039221;28;21008;-73
2023/06/08 09:50:02;;;;;;;0.20;0.20;;;;;;;;;;5041864;28;20088;-73
2023/06/08 09:52:31;;;;;;;0.50;0.50;;;;;;;;;;5041477;28;20566;-73
2023/06/08 09:54:58;;;;;;;0.43;0.40;;;;;;;;;;5042805;28;20127;-75
2023/06/08 09:57:27;;;;;;;0.63;0.40;;;;;;;;;;5040721;28;20053;-74
2023/06/08 10:00:19;;;;;;;0.30;0.30;;;;;;;;;;5040006;28;20059;-77
2023/06/08 10:03:04;;;;;;;0.20;0.20;;;;;;;;;;5038141;28;20081;-74
2023/06/08 10:05:33;;;;;;;0.30;0.30;;;;;;;;;;5038515;28;20443;-73
2023/06/08 10:08:02;;;;;;;0.50;0.40;;;;;;;;;;5039343;28;20064;-73
2023/06/08 10:10:35;;;;;;;1.55;0.68;;;;;;;;;;5032941;28;20062;-73
2023/06/08 10:13:02;;;;;;;0.20;0.20;;;;;;;;;;5023555;28;20475;-75
2023/06/08 10:15:29;;;;;;;0.30;0.25;;;;;;;;;;5052065;28;20633;-73
2023/06/08 10:17:57;;;;;;;0.38;0.20;;;;;;;;;;5042726;28;20057;-73
2023/06/08 10:20:24;;;;;;;0.82;0.50;;;;;;;;;;5044070;28;20408;-73
2023/06/08 10:22:50;;;;;;;0.65;0.40;;;;;;;;;;5042610;28;20587;-73
2023/06/08 10:25:18;;;;;;;0.57;0.43;;;;;;;;;;5043557;28;20056;-74
2023/06/08 10:27:48;;;;;;;0.30;0.30;;;;;;;;;;5043719;28;20135;-73
2023/06/08 10:30:41;;;;;;;0.43;0.40;;;;;;;;;;5023604;28;20058;-73
2023/06/08 10:33:15;;;;;;;0.30;0.30;;;;;;;;;;5031614;28;20041;-73
2023/06/08 10:35:42;;;;;;;0.65;0.38;;;;;;;;;;5045258;28;20358;-72
2023/06/08 10:38:09;;;;;;;0.90;0.50;;;;;;;;;;5043150;28;20141;-73
2023/06/08 10:40:46;;;;;;;3.05;0.70;;;;;;;;;;5044004;28;20470;-73
2023/06/08 10:43:12;;;;;;;0.70;0.43;;;;;;;;;;5043001;28;20061;-75
2023/06/08 10:46:03;;;;;;;0.20;0.20;;;;;;;;;;5042567;28;20057;-73
2023/06/08 10:48:39;;;;;;;0.63;0.63;;;;;;;;;;5043033;28;20136;-73
2023/06/08 10:51:08;;;;;;;0.20;0.20;;;;;;;;;;5042074;28;20131;-73
2023/06/08 10:53:54;;;;;;;0.40;0.30;;;;;;;;;;5043688;28;20810;-74
2023/06/08 10:56:23;;;;;;;0.43;0.35;;;;;;;;;;5037257;28;21365;-73
2023/06/08 10:58:51;;;;;;;1.33;1.02;;;;;;;;;;5040045;28;20064;-74
2023/06/08 11:01:29;;;;;;;0.22;0.22;;;;;;;;;;5041529;28;20055;-74
2023/06/08 11:03:57;;;;;;;0.30;0.30;;;;;;;;;;5042125;28;20053;-74
2023/06/08 11:06:33;;;;;;;0.88;0.60;;;;;;;;;;5040969;28;20053;-74
2023/06/08 11:09:03;;;;;;;0.68;0.55;;;;;;;;;;5042743;28;20612;-74
2023/06/08 11:11:32;;;;;;;2.33;0.40;;;;;;;;;;5042672;28;20322;-75
2023/06/08 11:14:02;;;;;;;0.60;0.50;;;;;;;;;;5043691;28;20053;-75
2023/06/08 11:16:28;;;;;;;0.93;0.47;;;;;;;;;;5044254;28;20049;-75
2023/06/08 11:18:58;;;;;;;0.47;0.40;;;;;;;;;;5036806;28;20060;-75
2023/06/08 11:21:24;;;;;;;0.40;0.30;;;;;;;;;;5041723;28;20140;-75
2023/06/08 11:23:51;;;;;;;0.65;0.47;;;;;;;;;;5041781;28;20115;-75
2023/06/08 11:26:19;;;;;;;0.50;0.50;;;;;;;;;;5039741;28;20212;-75
2023/06/08 11:28:45;;;;;;;0.85;0.55;;;;;;;;;;5044174;28;20045;-75
2023/06/08 11:31:13;;;;;;;0.90;0.68;;;;;;;;;;5035172;28;20597;-75
2023/06/08 11:33:46;;;;;;;0.60;0.45;;;;;;;;;;5042808;28;20052;-75
2023/06/08 11:36:12;;;;;;;0.30;0.30;;;;;;;;;;5041096;28;20057;-75
2023/06/08 11:38:39;;;;;;;0.82;0.75;;;;;;;;;;5041521;28;20061;-75
2023/06/08 11:41:09;;;;;;;0.50;0.50;;;;;;;;;;5043448;28;20065;-75
2023/06/08 11:43:35;;;;;;;0.82;0.60;;;;;;;;;;5043381;28;20084;-75
2023/06/08 11:46:02;;;;;;;0.90;0.68;;;;;;;;;;5036785;28;20085;-75
2023/06/08 11:48:28;;;;;;;0.40;0.40;;;;;;;;;;5040048;28;20089;-75
2023/06/08 11:50:59;;;;;;;1.05;0.70;;;;;;;;;;5037900;28;20057;-75
2023/06/08 11:53:26;;;;;;;0.38;0.38;;;;;;;;;;5044078;28;20096;-75
2023/06/08 11:55:54;;;;;;;1.48;1.35;;;;;;;;;;5042502;28;20060;-75
2023/06/08 11:58:28;;;;;;;0.30;0.30;;;;;;;;;;5043366;28;20053;-74
2023/06/08 12:01:07;;;;;;;0.40;0.35;;;;;;;;;;5044328;28;21002;-74
2023/06/08 12:03:41;;;;;;;1.70;0.68;;;;;;;;;;5041039;28;20960;-72
2023/06/08 12:06:08;;;;;;;0.75;0.68;;;;;;;;;;5036907;28;20053;-74
2023/06/08 12:08:34;;;;;;;1.13;1.05;;;;;;;;;;5034883;28;20128;-75
2023/06/08 12:11:08;;;;;;;0.30;0.30;;;;;;;;;;5022934;28;20062;-75
2023/06/08 12:13:37;;;;;;;0.70;0.52;;;;;;;;;;5038634;28;20101;-74
2023/06/08 12:16:08;;;;;;;0.47;0.43;;;;;;;;;;5039418;28;20084;-74
2023/06/08 12:18:42;;;;;;;1.00;0.60;;;;;;;;;;5041090;28;20140;-74
2023/06/08 12:21:09;;;;;;;0.63;0.45;;;;;;;;;;5040330;28;20060;-74
2023/06/08 12:23:36;;;;;;;0.57;0.43;;;;;;;;;;5036565;28;20057;-74
2023/06/08 12:26:03;;;;;;;0.30;0.30;;;;;;;;;;5041761;28;20054;-73
2023/06/08 12:28:31;;;;;;;0.30;0.30;;;;;;;;;;5040128;28;20554;-74
2023/06/08 12:31:00;;;;;;;0.50;0.40;;;;;;;;;;5039615;28;20053;-74
2023/06/08 12:33:27;;;;;;;0.52;0.50;;;;;;;;;;5042886;28;20638;-74
2023/06/08 12:35:56;;;;;;;0.45;0.40;;;;;;;;;;5039934;28;20518;-74
2023/06/08 12:38:23;;;;;;;1.35;0.70;;;;;;;;;;5038348;28;20133;-74
2023/06/08 12:40:51;;;;;;;0.40;0.40;;;;;;;;;;5042400;28;20073;-74
2023/06/08 12:43:18;;;;;;;1.10;0.55;;;;;;;;;;5040336;28;20057;-74
2023/06/08 12:45:45;;;;;;;0.63;0.50;;;;;;;;;;5040540;28;20049;-74
2023/06/08 12:48:13;;;;;;;1.17;0.63;;;;;;;;;;5041736;28;20053;-74
2023/06/08 12:50:39;;;;;;;1.55;0.98;;;;;;;;;;5042925;28;20127;-74
2023/06/08 12:53:06;;;;;;;0.50;0.50;;;;;;;;;;5041738;28;20053;-74
2023/06/08 12:55:33;;;;;;;0.55;0.55;;;;;;;;;;5039918;28;20058;-74
2023/06/08 12:57:59;;;;;;;0.50;0.32;;;;;;;;;;5042789;28;20499;-74
2023/06/08 13:00:26;;;;;;;0.50;0.50;;;;;;;;;;5041045;28;20818;-74
2023/06/08 13:02:53;;;;;;;1.00;0.60;;;;;;;;;;5040648;28;20511;-74
2023/06/08 13:05:20;;;;;;;0.30;0.30;;;;;;;;;;5042722;28;20057;-74
2023/06/08 13:07:49;;;;;;;0.80;0.47;;;;;;;;;;5039212;28;20053;-74
2023/06/08 13:10:16;;;;;;;0.30;0.30;;;;;;;;;;5040996;28;20119;-74
2023/06/08 13:12:45;;;;;;;0.57;0.30;;;;;;;;;;5033719;28;20555;-74
2023/06/08 13:15:11;;;;;;;0.47;0.43;;;;;;;;;;5036409;28;20056;-74
2023/06/08 13:17:38;;;;;;;0.43;0.40;;;;;;;;;;5035493;28;20057;-74
2023/06/08 13:20:05;;;;;;;0.40;0.40;;;;;;;;;;5023595;28;20062;-74
2023/06/08 13:22:32;;;;;;;0.82;0.60;;;;;;;;;;5024717;28;20440;-74
2023/06/08 13:24:58;;;;;;;1.50;0.80;;;;;;;;;;5027363;28;20061;-74
2023/06/08 13:27:25;;;;;;;0.40;0.40;;;;;;;;;;5050131;28;20054;-74
2023/06/08 13:29:52;;;;;;;0.93;0.50;;;;;;;;;;5037658;28;20054;-74
2023/06/08 13:32:18;;;;;;;6.43;0.95;;;;;;;;;;5040563;28;20221;-74
2023/06/08 13:34:45;;;;;;;1.38;0.70;;;;;;;;;;5041361;28;20579;-74
2023/06/08 13:37:12;;;;;;;0.50;0.50;;;;;;;;;;5041895;28;20570;-74
2023/06/08 13:39:38;;;;;;;0.30;0.30;;;;;;;;;;5038937;28;20060;-74
2023/06/08 13:42:05;;;;;;;0.40;0.40;;;;;;;;;;5041699;28;20057;-74
2023/06/08 13:44:31;;;;;;;0.50;0.50;;;;;;;;;;5040502;28;20523;-74
2023/06/08 13:46:59;;;;;;;0.70;0.60;;;;;;;;;;5039907;28;20475;-74
2023/06/08 13:49:26;;;;;;;0.50;0.50;;;;;;;;;;5041764;28;20053;-74
2023/06/08 13:51:52;;;;;;;0.30;0.30;;;;;;;;;;5042422;28;20123;-74
2023/06/08 13:54:19;;;;;;;0.45;0.38;;;;;;;;;;5028008;28;20053;-73
2023/06/08 13:56:45;;;;;;;0.55;0.52;;;;;;;;;;5036770;28;20147;-75
2023/06/08 13:59:12;;;;;;;0.45;0.45;;;;;;;;;;5029363;28;20091;-72
2023/06/08 14:01:39;;;;;;;0.55;0.40;;;;;;;;;;5022596;28;20053;-72
2023/06/08 14:04:06;;;;;;;0.40;0.40;;;;;;;;;;5042989;28;20076;-73
2023/06/08 14:06:32;;;;;;;0.40;0.40;;;;;;;;;;5037182;28;20077;-73
2023/06/08 14:08:59;;;;;;;0.40;0.40;;;;;;;;;;5041843;28;20111;-73
2023/06/08 14:11:26;;;;;;;0.50;0.50;;;;;;;;;;5045887;28;20054;-73
2023/06/08 14:13:52;;;;;;;0.65;0.40;;;;;;;;;;5042059;28;20383;-73
2023/06/08 14:16:19;;;;;;;1.08;0.60;;;;;;;;;;5045780;28;20061;-73
2023/06/08 14:18:46;;;;;;;0.57;0.40;;;;;;;;;;5041669;28;20056;-73
2023/06/08 14:21:12;;;;;;;0.68;0.50;;;;;;;;;;5043921;28;20088;-73
2023/06/08 14:23:39;;;;;;;0.43;0.43;;;;;;;;;;5045390;28;20428;-73
2023/06/08 14:26:07;;;;;;;1.30;0.60;;;;;;;;;;5043835;28;20057;-73
2023/06/08 14:28:35;;;;;;;0.50;0.47;;;;;;;;;;5041377;28;20057;-73
2023/06/08 14:31:01;;;;;;;0.40;0.40;;;;;;;;;;5044648;28;20058;-74
2023/06/08 14:33:28;;;;;;;0.30;0.30;;;;;;;;;;5042939;28;20119;-74
2023/06/08 14:35:55;;;;;;;0.80;0.80;;;;;;;;;;5043996;28;20057;-74
2023/06/08 14:38:21;;;;;;;0.45;0.30;;;;;;;;;;5040603;28;20136;-74
2023/06/08 14:40:48;;;;;;;0.75;0.52;;;;;;;;;;5035117;28;20088;-74
2023/06/08 14:43:14;;;;;;;0.38;0.35;;;;;;;;;;5042740;28;20504;-74
2023/06/08 14:45:41;;;;;;;2.05;1.35;;;;;;;;;;5043062;28;20073;-74
2023/06/08 14:48:08;;;;;;;0.85;0.50;;;;;;;;;;5041932;28;20053;-74
2023/06/08 14:50:34;;;;;;;0.70;0.52;;;;;;;;;;5041785;28;20482;-74